Station LDTM4 - 9087023 - Ludington, MI Image indicating link to RSS feed of recent meteorological observations for station LDTM4


Conditions at LDTM4 as of
(8:00 pm EDT on 07/17/2024)
0000 GMT on 07/18/2024:
     

Click on the graph icon in the table below to see a time series plot of the last five days of that observation.

5-day plot - Wind Direction Wind Direction (WDIR): N ( 360 deg true )
5-day plot - Wind Speed Wind Speed (WSPD): 5.1 kts
5-day plot - Wind Gust Wind Gust (GST): 12.0 kts
5-day plot - Air Temperature Air Temperature (ATMP): 67.3 °F
5-day plot - Dew Point Dew Point (DEWP): 53.8 °F
5-day plot - Wind Speed at 10 Meters Wind Speed at 10 meters (WSPD10M): 5.8 kts
5-day plot - Wind Speed at 20 Meters Wind Speed at 20 meters (WSPD20M): 5.8 kts
5-day plot -  Wind Speed, Wind Gust and Atmospheric Pressure Combined plot of Wind Speed, Gust, and Air Pressure
NOS Water Level Observation Network Water Level
Previous observations
TIME
(EDT)
5-day plot - Wind Direction
WDIR
 
5-day plot - Wind Speed
WSPD
kts
5-day plot - Wind Gust
GST
kts
5-day plot - Wave Height
WVHT
ft
5-day plot - Dominant Wave Period
DPD
sec
5-day plot - Average Wave Period
APD
sec
5-day plot - Mean Wave Direction
MWD
 
5-day plot - Atmospheric Pressure
PRES
in
5-day plot - Pressure Tendency
PTDY
in
5-day plot - Air Temperature
ATMP
°F
5-day plot - Water Temperature
WTMP
°F
5-day plot - Dew Point
DEWP
°F
5-day plot - Salinity
SAL
psu
5-day plot - Visibility
VIS
nmi
5-day plot - Tide (above MLLW)
TIDE
ft
2024-07-17 07:54 pm N 5.1 11.1------ 67.6- 53.4---
2024-07-17 07:48 pm N 5.1 13.0------------
2024-07-17 07:42 pm N 5.1 12.0------ 68.4- 52.3---
2024-07-17 07:36 pm N 7.0 12.0------ 68.2- 52.0---
2024-07-17 07:30 pm N 5.1 11.1------ 68.9- 52.9---
2024-07-17 07:24 pm N 4.1 13.0------ 68.7- 52.7---
2024-07-17 07:18 pm N 6.0 15.0------------
2024-07-17 07:12 pmNNE 5.1 8.9------------
2024-07-17 07:06 pm N 5.1 13.0------------
2024-07-17 07:00 pm N 6.0 12.0------------
2024-07-17 06:54 pm N 6.0 9.9------------
2024-07-17 06:48 pmNNE 7.0 12.0------ 68.2- 52.5---
2024-07-17 06:42 pmNNW 7.0 12.0------ 68.9- 52.5---
2024-07-17 06:36 pmNNW 6.0 15.0------ 68.5- 52.2---
2024-07-17 06:30 pmNNW 6.0 13.0------ 69.3- 52.7---
2024-07-17 06:24 pm N 5.1 15.0------ 68.9- 52.5---
2024-07-17 06:00 pmNNW 9.9 14.0------ 68.7- 52.3---
2024-07-17 05:54 pmNNW 5.1 13.0------ 69.1- 52.5---
2024-07-17 05:48 pmNNW 7.0 14.0------ 69.6- 52.5---
2024-07-17 05:42 pm N 9.9 12.0------ 69.1- 52.5---
2024-07-17 05:36 pm N 6.0 14.0------ 70.3- 53.8---
2024-07-17 05:30 pm N 7.0 14.0------ 69.6- 53.4---
2024-07-17 05:24 pm N 8.0 15.0------ 69.3- 52.9---
2024-07-17 05:18 pm N 5.1 12.0------ 69.8- 53.6---
2024-07-17 05:12 pm N 8.0 17.1------ 69.6- 53.4---
2024-07-17 05:06 pmNNW 9.9 15.9------ 68.9- 52.2---
2024-07-17 05:00 pmNNW 9.9 14.0------ 70.0- 51.4---
2024-07-17 04:54 pmNNW 6.0 9.9------ 70.3- 52.2---
2024-07-17 04:48 pm N 6.0 15.9------------
2024-07-17 04:42 pmNNW 7.0 13.0------ 70.7- 50.9---
2024-07-17 04:36 pmWNW 8.9 14.0------ 70.0- 50.9---
2024-07-17 04:30 pm NW 6.0 15.0------ 70.7- 52.9---
2024-07-17 04:24 pmWNW 9.9 15.0------ 69.6- 51.4---
2024-07-17 04:18 pmWNW 8.0 12.0------ 71.2- 52.9---
2024-07-17 04:12 pm NW 7.0 14.0------ 70.7- 52.0---
2024-07-17 04:06 pmWNW 8.9 13.0------ 69.8- 50.5---
2024-07-17 04:00 pm NW 11.1 13.0------ 70.2- 50.9---
2024-07-17 03:54 pm NW 6.0 12.0------ 70.2- 51.4---
2024-07-17 03:48 pmWNW 8.0 17.1------ 70.3- 51.4---
2024-07-17 03:42 pmWNW 7.0 14.0------ 70.3- 51.8---
2024-07-17 03:36 pm NW 6.0 15.9------ 70.7- 52.7---
2024-07-17 03:30 pm NW 7.0 12.0------ 70.2- 52.3---
2024-07-17 03:24 pmNNW 4.1 11.1------ 70.9- 54.0---
2024-07-17 03:18 pm NW 5.1 9.9------------
2024-07-17 03:12 pmNNW 5.1 14.0------ 69.6- 52.7---
2024-07-17 03:06 pm N 7.0 12.0------ 70.5- 53.4---
2024-07-17 03:00 pm N 4.1 15.0------ 70.2- 53.4---
2024-07-17 02:54 pmNNW 7.0 12.0------ 69.6- 52.0---
2024-07-17 02:48 pmNNW 7.0 11.1------------
2024-07-17 02:42 pm NW 6.0 14.0------------
2024-07-17 02:36 pm N 4.1 8.9------------
2024-07-17 02:30 pm N 4.1 12.0------ 70.9- 52.7---
2024-07-17 02:24 pm N 6.0 11.1------ 69.3- 52.0---
2024-07-17 02:18 pmNNW 8.0 13.0------ 69.6- 52.7---
2024-07-17 02:12 pmNNW 8.0 14.0------ 69.3- 52.3---
2024-07-17 02:06 pm N 8.9 18.1------ 69.3- 52.5---
2024-07-17 02:00 pm N 6.0 15.9------ 69.8- 54.1---
2024-07-17 01:54 pm N 4.1 13.0------ 70.3- 54.1---
2024-07-17 01:48 pm N 4.1 13.0------ 70.0- 55.4---
2024-07-17 01:42 pm N 8.0 17.1------ 69.1- 54.1---
2024-07-17 01:36 pm N 7.0 14.0------ 69.8- 56.1---
2024-07-17 01:30 pmNNW 7.0 13.0------ 70.0- 55.8---
2024-07-17 01:24 pmNNW 7.0 13.0------ 69.6- 55.0---
2024-07-17 01:18 pm N 8.9 15.0------ 69.3- 54.5---
2024-07-17 01:12 pm N 5.1 14.0------ 70.0- 55.8---
2024-07-17 01:06 pm N 7.0 14.0------ 69.4- 55.6---
2024-07-17 01:00 pmNNE 6.0 13.0------ 69.4- 54.7---
2024-07-17 12:54 pm N 9.9 15.9------ 69.4- 54.3---
2024-07-17 12:48 pmNNW 8.9 15.9------ 69.8- 54.7---
2024-07-17 12:42 pmNNW 7.0 14.0------ 70.0- 54.9---
2024-07-17 12:36 pmNNW 6.0 15.0------ 70.0- 55.0---
2024-07-17 12:30 pm N 8.9 15.0------ 70.0- 54.1---
2024-07-17 12:24 pm N 8.0 15.0------ 70.3- 55.6---
2024-07-17 12:18 pm N 7.0 14.0------ 70.5- 54.7---
2024-07-17 12:12 pm N 7.0 14.0------ 70.5- 54.5---
2024-07-17 12:06 pmNNW 8.0 15.0------ 70.3- 54.0---
2024-07-17 12:00 pm N 6.0 15.9------ 70.5- 52.7---
2024-07-17 11:54 am N 9.9 15.9------ 70.3- 52.2---
2024-07-17 11:48 am N 5.1 15.9------ 70.3- 55.0---
2024-07-17 11:42 am N 5.1 13.0------ 70.2- 56.8---
2024-07-17 11:36 am N 5.1 15.0------ 70.3- 57.9---
2024-07-17 11:30 am N 7.0 14.0------ 70.5- 58.1---
2024-07-17 11:24 am N 6.0 15.0------ 70.3- 57.9---
2024-07-17 11:18 amNNW 6.0 11.1------ 70.7- 58.6---
2024-07-17 11:12 am N 7.0 14.0------ 70.3- 58.6---
2024-07-17 11:06 am N 6.0 11.1------ 71.8- 59.5---
2024-07-17 11:00 am NW 8.0 11.1------ 71.1- 58.6---
2024-07-17 10:54 amWNW 6.0 11.1------ 70.7- 58.8---
2024-07-17 10:48 amWNW 5.1 8.0------ 71.8- 58.6---
2024-07-17 10:42 am NW 7.0 11.1------ 71.2- 58.6---
2024-07-17 10:36 am NW 8.0 12.0------ 71.1- 58.8---
2024-07-17 10:30 amNNW 7.0 11.1------ 71.1- 58.8---
2024-07-17 10:24 amNNW 6.0 11.1------ 70.9- 60.4---
2024-07-17 10:18 am N 7.0 12.0------ 70.5- 61.3---
2024-07-17 10:12 amNNW 5.1 11.1------ 70.5- 62.1---
2024-07-17 10:06 am NW 5.1 9.9------ 70.9- 62.2---
2024-07-17 10:00 amNNW 5.1 11.1------ 70.5- 62.6---
2024-07-17 09:54 am NW 7.0 13.0------ 69.6- 61.9---
2024-07-17 09:48 amWNW 6.0 9.9------------
2024-07-17 09:42 amWNW 6.0 8.0------------
2024-07-17 09:36 am NW 5.1 11.1------------
2024-07-17 09:30 amWNW 5.1 13.0------ 70.5- 63.3---
2024-07-17 09:24 amWNW 7.0 11.1------ 70.3- 63.1---
2024-07-17 09:18 am NW 5.1 8.0------ 70.3- 63.9---
2024-07-17 09:12 am NW 5.1 9.9------ 70.0- 64.0---
2024-07-17 09:06 amWNW 5.1 8.9------ 69.8- 64.8---
2024-07-17 09:00 am NW 4.1 8.9------ 69.6- 65.7---
2024-07-17 08:54 amWNW 5.1 8.9------ 69.1- 65.5---
2024-07-17 08:48 amWNW 5.1 8.0------ 69.1- 65.8---
2024-07-17 08:42 am W 5.1 7.0------ 69.1- 65.8---
2024-07-17 08:36 amWNW 2.9 7.0------ 69.3- 66.0---
2024-07-17 08:30 amWNW 2.9 7.0------ 69.3- 65.8---
2024-07-17 08:24 am W 5.1 6.0------ 69.1- 65.5---
2024-07-17 08:18 am W 2.9 5.1------ 69.1- 65.5---
2024-07-17 08:12 am W 2.9 5.1------ 68.9- 65.3---
2024-07-17 08:06 am W 1.9 2.9------ 68.7- 65.1---
2024-07-17 08:00 am W 1.9 2.9------ 68.7- 65.1---
2024-07-17 07:54 am W 1.0 1.9------ 68.7- 65.1---
2024-07-17 07:48 am W 1.0 1.9------ 68.5- 65.1---
2024-07-17 07:42 am- 0.0 1.0------ 68.2- 65.1---
2024-07-17 07:36 am- 0.0 0.0------ 67.5- 64.8---
2024-07-17 07:30 am- 0.0 1.0------ 66.7- 63.9---
2024-07-17 07:24 am- 0.0 1.0------ 66.2- 63.3---
2024-07-17 07:18 amENE 1.0 1.0------ 66.0- 63.0---
2024-07-17 07:12 am- 0.0 1.0------ 66.0- 63.1---
2024-07-17 07:06 am- 0.0 1.0------ 65.7- 63.0---
2024-07-17 07:00 am- 0.0 1.0------ 65.3- 62.8---
2024-07-17 06:54 amENE 1.0 1.9------ 65.3- 62.6---
2024-07-17 06:48 amENE 1.0 1.9------ 65.3- 62.6---
2024-07-17 06:42 amENE 1.0 1.9------ 65.1- 62.4---
2024-07-17 06:36 amENE 1.0 1.9------ 64.9- 62.2---
2024-07-17 06:30 amENE 1.9 1.9------ 65.1- 62.2---
2024-07-17 06:24 amENE 1.0 1.9------ 65.3- 62.4---
2024-07-17 06:18 am E 1.0 1.9------ 65.3- 62.4---
2024-07-17 06:12 amENE 1.0 1.0------ 65.3- 62.2---
2024-07-17 06:06 am- 0.0 1.0------ 65.7- 62.6---
2024-07-17 06:00 am E 1.0 1.9------ 65.7- 62.4---
2024-07-17 05:54 am- 0.0 1.0------ 66.0- 62.8---
2024-07-17 05:48 am- 0.0 1.0------ 66.4- 63.1---
2024-07-17 05:42 am- 0.0 1.0------ 66.7- 63.1---
2024-07-17 05:36 am- 0.0 0.0------ 66.6- 63.0---
2024-07-17 05:30 am- 0.0 1.9------ 66.7- 63.1---
2024-07-17 05:24 am N 1.9 1.9------ 66.9- 63.0---
2024-07-17 05:18 am- 0.0 1.9------ 66.9- 63.0---
2024-07-17 05:12 am N 1.9 2.9------ 67.1- 62.8---
2024-07-17 05:06 am N 1.9 2.9------ 67.5- 63.0---
2024-07-17 05:00 amNNW 1.0 2.9------ 67.5- 63.0---
2024-07-17 04:54 am- 0.0 1.9------ 67.6- 63.1---
2024-07-17 04:48 am- 0.0 2.9------ 67.6- 63.0---
2024-07-17 04:42 am NW 1.0 1.9------ 67.8- 63.0---
2024-07-17 04:36 amNNW 1.0 1.9------ 67.8- 63.0---
2024-07-17 04:30 amNNW 1.0 1.9------ 68.2- 63.1---
2024-07-17 04:24 am- 0.0 1.0------ 68.2- 63.3---
2024-07-17 04:18 am- 0.0 1.9------ 68.4- 63.5---
2024-07-17 04:12 amNNW 1.9 4.1------ 68.7- 63.7---
2024-07-17 04:06 am N 1.9 5.1------ 68.9- 64.2---
2024-07-17 04:00 am N 1.9 5.1------ 69.1- 64.6---
2024-07-17 03:54 am NW 1.9 5.1------ 69.4- 65.3---
2024-07-17 03:48 amWNW 2.9 6.0------ 69.4- 65.7---
2024-07-17 03:42 amWNW 2.9 6.0------ 69.3- 66.0---
2024-07-17 03:36 am W 1.9 5.1------ 69.3- 66.0---
2024-07-17 03:30 am W 2.9 5.1------ 69.4- 66.2---
2024-07-17 03:24 amWSW 1.0 2.9------ 69.6- 66.2---
2024-07-17 03:18 am- 0.0 1.9------------
2024-07-17 03:12 am- 0.0 2.9------ 69.8- 66.2---
2024-07-17 03:06 amWSW 1.9 4.1------ 69.8- 65.8---
2024-07-17 03:00 amWSW 1.0 4.1------ 69.8- 65.5---
2024-07-17 02:54 amWSW 1.0 4.1------ 70.0- 65.3---
2024-07-17 02:48 amWSW 1.9 5.1------ 69.8- 64.8---
2024-07-17 02:42 am- 0.0 1.9------ 69.8- 64.9---
2024-07-17 02:36 am- 0.0 4.1------ 69.8- 64.9---
2024-07-17 02:30 am- 0.0 2.9------ 69.8- 64.9---
2024-07-17 02:24 am- 0.0 4.1------ 69.8- 65.1---
2024-07-17 02:18 am- 0.0 1.9------ 69.8- 65.1---
2024-07-17 02:12 am- 0.0 1.9------ 69.8- 65.3---
2024-07-17 02:06 am- 0.0 2.9------ 69.8- 65.1---
2024-07-17 02:00 am- 0.0 6.0------ 69.8- 65.3---
2024-07-17 01:54 amWSW 2.9 5.1------ 69.8- 65.3---
2024-07-17 01:48 am SW 1.9 5.1------------
2024-07-17 01:42 amWSW 1.9 8.0------------
2024-07-17 01:36 amWSW 1.9 8.0------------
2024-07-17 01:30 am W 4.1 7.0------ 69.8- 65.5---
2024-07-17 01:24 am W 5.1 8.9------ 69.8- 65.3---
2024-07-17 01:18 am W 5.1 8.9------------
2024-07-17 01:12 am W 5.1 8.0------ 70.0- 65.1---
2024-07-17 01:06 am W 5.1 8.0------ 70.0- 65.1---
2024-07-17 01:00 am W 6.0 8.9------ 70.2- 65.3---
2024-07-17 12:54 am W 5.1 7.0------ 70.0- 65.1---
2024-07-17 12:48 am W 5.1 7.0------ 70.0- 65.3---
2024-07-17 12:42 am W 4.1 7.0------ 69.8- 65.3---
2024-07-17 12:36 am W 4.1 7.0------ 69.8- 65.3---
2024-07-17 12:30 am W 4.1 8.0------ 69.8- 65.3---
2024-07-17 12:24 am W 4.1 7.0------ 69.6- 65.1---
2024-07-17 12:18 am W 5.1 8.0------------
2024-07-17 12:12 am W 5.1 8.0------------
2024-07-17 12:06 am W 5.1 7.0------------
2024-07-17 12:00 amWSW 1.0 7.0------ 69.8- 65.3---
2024-07-16 11:54 pm- 0.0 2.9------ 69.6- 65.1---
2024-07-16 11:48 pmWSW 1.9 7.0------ 69.8- 65.3---
2024-07-16 11:42 pm W 5.1 9.9------ 69.8- 65.1---
2024-07-16 11:36 pm W 7.0 8.9------ 69.6- 64.9---
2024-07-16 11:30 pm W 5.1 8.0------ 69.6- 65.1---
2024-07-16 11:24 pmWSW 2.9 8.0------ 69.4- 65.1---
2024-07-16 11:18 pm W 5.1 8.9------ 69.4- 64.9---
2024-07-16 11:12 pm W 2.9 7.0------ 69.4- 64.9---
2024-07-16 11:06 pm W 4.1 7.0------ 69.6- 64.9---
2024-07-16 11:00 pm W 5.1 6.0------ 69.4- 64.4---
2024-07-16 10:54 pmWSW 1.9 2.9------ 69.6- 64.2---
2024-07-16 10:48 pm- 0.0 1.9------------
2024-07-16 10:42 pm- 0.0 1.9------ 69.3- 63.5---
2024-07-16 10:36 pm- 0.0 1.0------ 69.1- 63.3---
2024-07-16 10:30 pm- 0.0 1.0------ 69.1- 63.0---
2024-07-16 10:24 pm- 0.0 1.0------ 69.3- 63.0---
2024-07-16 10:18 pm- 0.0 1.0------ 69.3- 63.1---
2024-07-16 10:12 pm- 0.0 2.9------ 69.4- 63.0---
2024-07-16 10:06 pmWSW 1.0 1.9------ 69.6- 63.1---
2024-07-16 10:00 pm- 0.0 1.0------ 69.4- 63.1---
2024-07-16 09:54 pm- 0.0 1.0------ 69.6- 63.3---
2024-07-16 09:48 pm- 0.0 1.0------------
2024-07-16 09:42 pm- 0.0 1.0------ 69.8- 63.1---
2024-07-16 09:36 pm- 0.0 1.0------ 69.8- 63.0---
2024-07-16 09:30 pm- 0.0 1.9------ 69.8- 62.8---
2024-07-16 09:24 pm- 0.0 1.9------ 69.6- 62.6---
2024-07-16 09:18 pmWSW 1.0 1.9------------
2024-07-16 09:12 pm- 0.0 1.9------ 70.0- 63.0---
2024-07-16 09:06 pm- 0.0 4.1------ 70.2- 63.0---
2024-07-16 09:00 pm- 0.0 1.9------ 70.3- 62.8---
2024-07-16 08:54 pm- 0.0 1.9------ 71.2- 62.4---
2024-07-16 08:48 pm- 0.0 1.9------ 71.4- 61.2---
2024-07-16 08:42 pm- 0.0 2.9------ 71.8- 61.7---
2024-07-16 08:36 pmWNW 1.0 4.1------ 72.5- 61.9---
2024-07-16 08:30 pmWNW 1.9 2.9------ 72.1- 61.7---
2024-07-16 08:06 pm- 0.0 2.9------ 74.8- 61.9---
2024-07-16 08:00 pm W 1.9 2.9------ 74.8- 61.3---
2024-07-16 07:54 pm W 1.9 4.1------ 74.7- 61.2---